Svend Maersk — OYJS2 — position and weather

sailwx.info

Track history (hours):
 
Tides and Currents Weather Stations Pressure Air Temp Water Temp Dewpoint Dewpoint Depression Visibility Wind Speed Wind Dir Waves Ship Positions

Svend Maersk

Last reported at 2015-Jan-22 11:25 UTC. Time now 2015-Feb-02 00:21 UTC.
Position N 30°04' W 121°29'.
Warning: this ship's position is 10 days out of date.

Type: Ship (hazmat cat A). MMSI: 219791000.

Date/timePositionNaut miles runAvg speedWind from/ knotsBaromVisibWave heightAir tempDewpointWater temp
2015-Jan-22 11:25N 30°04' W 121°29'2619.9
2015-Jan-22 10:07N 30°21' W 121°53'1219.9
2015-Jan-22 09:32N 30°28' W 122°03'33519.7
2015-Jan-21 16:30N 33°52' W 127°17'3819.6
2015-Jan-21 14:33N 34°15' W 127°54'2019.9
2015-Jan-21 13:33N 34°27' W 128°13'2019.6
2015-Jan-21 12:33N 34°38' W 128°33'2019.6
2015-Jan-21 11:33N 34°49' W 128°52'2619.5
2015-Jan-21 10:14N 35°05' W 129°17'1419.5
2015-Jan-21 09:31N 35°13' W 129°31'  
Track history (hours):
 
Tides and Currents Weather Stations Pressure Air Temp Water Temp Dewpoint Dewpoint Depression Visibility Wind Speed Wind Dir Waves Ship Positions

Svend Maersk

Last reported at 2015-Jan-22 11:25 UTC. Time now 2015-Feb-02 00:21 UTC.
Position N 30°04' W 121°29'.
Warning: this ship's position is 10 days out of date.

Type: Ship (hazmat cat A). MMSI: 219791000.

Date/timePositionNaut miles runAvg speedWind from/ knotsBaromVisibWave heightAir tempDewpointWater temp
2015-Jan-22 11:25N 30°04' W 121°29'2619.9
2015-Jan-22 10:07N 30°21' W 121°53'1219.9
2015-Jan-22 09:32N 30°28' W 122°03'33519.7
2015-Jan-21 16:30N 33°52' W 127°17'3819.6
2015-Jan-21 14:33N 34°15' W 127°54'2019.9
2015-Jan-21 13:33N 34°27' W 128°13'2019.6
2015-Jan-21 12:33N 34°38' W 128°33'2019.6
2015-Jan-21 11:33N 34°49' W 128°52'2619.5
2015-Jan-21 10:14N 35°05' W 129°17'1419.5
2015-Jan-21 09:31N 35°13' W 129°31'  

Dump ship's entire track history